sensor_id;sensor_type;location;lat;lon;timestamp;P1;durP1;ratioP1;P2;durP2;ratioP2
35693;SDS011;21812;55.536;37.664;2022-10-16T00:00:37;5.20;;;3.30;;
35693;SDS011;21812;55.536;37.664;2022-10-16T00:03:05;6.45;;;3.58;;
35693;SDS011;21812;55.536;37.664;2022-10-16T00:05:31;4.32;;;3.00;;
35693;SDS011;21812;55.536;37.664;2022-10-16T00:07:57;6.35;;;4.00;;
35693;SDS011;21812;55.536;37.664;2022-10-16T00:10:22;3.20;;;2.90;;
35693;SDS011;21812;55.536;37.664;2022-10-16T00:12:48;5.03;;;3.00;;
35693;SDS011;21812;55.536;37.664;2022-10-16T00:15:14;6.53;;;3.83;;
35693;SDS011;21812;55.536;37.664;2022-10-16T00:17:40;8.00;;;3.17;;
35693;SDS011;21812;55.536;37.664;2022-10-16T00:20:06;12.35;;;4.55;;
35693;SDS011;21812;55.536;37.664;2022-10-16T00:22:50;4.72;;;3.10;;
35693;SDS011;21812;55.536;37.664;2022-10-16T00:25:16;9.30;;;3.65;;
35693;SDS011;21812;55.536;37.664;2022-10-16T00:27:42;3.83;;;2.55;;
35693;SDS011;21812;55.536;37.664;2022-10-16T00:30:07;6.93;;;3.45;;
35693;SDS011;21812;55.536;37.664;2022-10-16T00:32:33;9.40;;;4.35;;
35693;SDS011;21812;55.536;37.664;2022-10-16T00:34:59;7.70;;;3.65;;
35693;SDS011;21812;55.536;37.664;2022-10-16T00:37:25;8.85;;;3.63;;
35693;SDS011;21812;55.536;37.664;2022-10-16T00:39:50;5.60;;;3.67;;
35693;SDS011;21812;55.536;37.664;2022-10-16T00:42:16;7.57;;;3.28;;
35693;SDS011;21812;55.536;37.664;2022-10-16T00:44:47;5.55;;;3.53;;
35693;SDS011;21812;55.536;37.664;2022-10-16T00:50:07;4.60;;;3.38;;
35693;SDS011;21812;55.536;37.664;2022-10-16T00:52:37;4.47;;;2.95;;
35693;SDS011;21812;55.536;37.664;2022-10-16T00:55:07;3.95;;;3.05;;
35693;SDS011;21812;55.536;37.664;2022-10-16T00:57:34;8.85;;;4.57;;
35693;SDS011;21812;55.536;37.664;2022-10-16T01:00:00;6.35;;;3.90;;
35693;SDS011;21812;55.536;37.664;2022-10-16T01:02:27;8.25;;;4.43;;
35693;SDS011;21812;55.536;37.664;2022-10-16T01:04:53;7.75;;;4.50;;
35693;SDS011;21812;55.536;37.664;2022-10-16T01:07:23;6.88;;;3.97;;
35693;SDS011;21812;55.536;37.664;2022-10-16T01:15:42;5.10;;;3.30;;
35693;SDS011;21812;55.536;37.664;2022-10-16T01:18:19;5.32;;;3.90;;
35693;SDS011;21812;55.536;37.664;2022-10-16T01:23:48;7.45;;;4.13;;
35693;SDS011;21812;55.536;37.664;2022-10-16T01:26:43;6.25;;;4.60;;
35693;SDS011;21812;55.536;37.664;2022-10-16T01:31:58;10.98;;;4.90;;
35693;SDS011;21812;55.536;37.664;2022-10-16T01:34:49;9.35;;;5.05;;
35693;SDS011;21812;55.536;37.664;2022-10-16T01:37:18;9.40;;;5.38;;
35693;SDS011;21812;55.536;37.664;2022-10-16T01:40:11;9.80;;;5.40;;
35693;SDS011;21812;55.536;37.664;2022-10-16T01:42:42;9.57;;;5.38;;
35693;SDS011;21812;55.536;37.664;2022-10-16T01:45:13;7.57;;;4.15;;
35693;SDS011;21812;55.536;37.664;2022-10-16T01:47:43;8.45;;;4.35;;
35693;SDS011;21812;55.536;37.664;2022-10-16T01:50:10;8.82;;;4.25;;
35693;SDS011;21812;55.536;37.664;2022-10-16T01:52:41;6.15;;;4.55;;
35693;SDS011;21812;55.536;37.664;2022-10-16T01:55:10;4.93;;;3.38;;
35693;SDS011;21812;55.536;37.664;2022-10-16T01:57:39;6.05;;;4.05;;
35693;SDS011;21812;55.536;37.664;2022-10-16T02:00:10;6.47;;;4.35;;
35693;SDS011;21812;55.536;37.664;2022-10-16T02:02:38;8.98;;;4.97;;
35693;SDS011;21812;55.536;37.664;2022-10-16T02:05:28;12.30;;;4.32;;
35693;SDS011;21812;55.536;37.664;2022-10-16T02:07:57;5.88;;;3.88;;
35693;SDS011;21812;55.536;37.664;2022-10-16T02:10:23;7.38;;;3.67;;
35693;SDS011;21812;55.536;37.664;2022-10-16T02:12:53;7.35;;;4.95;;
35693;SDS011;21812;55.536;37.664;2022-10-16T02:15:44;8.30;;;5.43;;
35693;SDS011;21812;55.536;37.664;2022-10-16T02:18:10;6.53;;;4.35;;
35693;SDS011;21812;55.536;37.664;2022-10-16T02:20:39;11.32;;;5.80;;
35693;SDS011;21812;55.536;37.664;2022-10-16T02:26:40;14.02;;;5.95;;
35693;SDS011;21812;55.536;37.664;2022-10-16T02:29:14;10.95;;;5.13;;
35693;SDS011;21812;55.536;37.664;2022-10-16T02:31:45;10.32;;;6.22;;
35693;SDS011;21812;55.536;37.664;2022-10-16T02:34:16;13.45;;;5.32;;
35693;SDS011;21812;55.536;37.664;2022-10-16T02:36:43;9.00;;;5.18;;
35693;SDS011;21812;55.536;37.664;2022-10-16T02:39:10;9.55;;;5.00;;
35693;SDS011;21812;55.536;37.664;2022-10-16T02:41:36;7.18;;;4.95;;
35693;SDS011;21812;55.536;37.664;2022-10-16T02:44:02;8.15;;;4.88;;
35693;SDS011;21812;55.536;37.664;2022-10-16T02:46:28;9.73;;;5.88;;
35693;SDS011;21812;55.536;37.664;2022-10-16T02:48:54;9.63;;;5.15;;
35693;SDS011;21812;55.536;37.664;2022-10-16T02:51:19;13.30;;;4.85;;
35693;SDS011;21812;55.536;37.664;2022-10-16T02:53:45;10.52;;;5.93;;
35693;SDS011;21812;55.536;37.664;2022-10-16T02:56:10;14.63;;;4.90;;
35693;SDS011;21812;55.536;37.664;2022-10-16T02:58:36;7.00;;;4.90;;
35693;SDS011;21812;55.536;37.664;2022-10-16T03:01:02;5.95;;;4.57;;
35693;SDS011;21812;55.536;37.664;2022-10-16T03:03:28;12.02;;;5.22;;
35693;SDS011;21812;55.536;37.664;2022-10-16T03:05:53;7.18;;;5.07;;
35693;SDS011;21812;55.536;37.664;2022-10-16T03:08:19;9.38;;;5.13;;
35693;SDS011;21812;55.536;37.664;2022-10-16T03:10:49;10.65;;;5.50;;
35693;SDS011;21812;55.536;37.664;2022-10-16T03:13:15;7.82;;;5.90;;
35693;SDS011;21812;55.536;37.664;2022-10-16T03:15:40;8.38;;;5.95;;
35693;SDS011;21812;55.536;37.664;2022-10-16T03:18:06;8.02;;;5.20;;
35693;SDS011;21812;55.536;37.664;2022-10-16T03:20:32;8.15;;;5.13;;
35693;SDS011;21812;55.536;37.664;2022-10-16T03:22:57;7.95;;;5.28;;
35693;SDS011;21812;55.536;37.664;2022-10-16T03:25:23;11.43;;;5.28;;
35693;SDS011;21812;55.536;37.664;2022-10-16T03:27:49;8.63;;;5.47;;
35693;SDS011;21812;55.536;37.664;2022-10-16T03:30:15;12.73;;;5.30;;
35693;SDS011;21812;55.536;37.664;2022-10-16T03:32:41;6.63;;;4.97;;
35693;SDS011;21812;55.536;37.664;2022-10-16T03:35:08;8.02;;;5.35;;
35693;SDS011;21812;55.536;37.664;2022-10-16T03:37:34;7.82;;;5.15;;
35693;SDS011;21812;55.536;37.664;2022-10-16T03:39:59;7.18;;;4.45;;
35693;SDS011;21812;55.536;37.664;2022-10-16T03:42:25;9.95;;;5.40;;
35693;SDS011;21812;55.536;37.664;2022-10-16T03:44:51;9.07;;;5.82;;
35693;SDS011;21812;55.536;37.664;2022-10-16T03:47:16;11.93;;;5.72;;
35693;SDS011;21812;55.536;37.664;2022-10-16T03:49:45;7.70;;;5.63;;
35693;SDS011;21812;55.536;37.664;2022-10-16T03:52:11;10.57;;;5.70;;
35693;SDS011;21812;55.536;37.664;2022-10-16T03:54:36;9.57;;;4.78;;
35693;SDS011;21812;55.536;37.664;2022-10-16T03:57:07;8.57;;;4.80;;
35693;SDS011;21812;55.536;37.664;2022-10-16T03:59:33;6.60;;;5.40;;
35693;SDS011;21812;55.536;37.664;2022-10-16T04:01:58;9.30;;;5.10;;
35693;SDS011;21812;55.536;37.664;2022-10-16T04:04:24;7.03;;;4.85;;
35693;SDS011;21812;55.536;37.664;2022-10-16T04:06:50;7.80;;;5.22;;
35693;SDS011;21812;55.536;37.664;2022-10-16T04:09:16;6.38;;;4.93;;
35693;SDS011;21812;55.536;37.664;2022-10-16T04:11:42;8.93;;;4.75;;
35693;SDS011;21812;55.536;37.664;2022-10-16T04:14:08;14.55;;;5.65;;
35693;SDS011;21812;55.536;37.664;2022-10-16T04:16:34;10.95;;;4.93;;
35693;SDS011;21812;55.536;37.664;2022-10-16T04:18:59;9.13;;;5.65;;
35693;SDS011;21812;55.536;37.664;2022-10-16T04:21:25;11.80;;;5.07;;
35693;SDS011;21812;55.536;37.664;2022-10-16T04:23:50;14.70;;;5.78;;
35693;SDS011;21812;55.536;37.664;2022-10-16T04:26:16;8.05;;;5.13;;
35693;SDS011;21812;55.536;37.664;2022-10-16T04:28:42;9.25;;;5.80;;
35693;SDS011;21812;55.536;37.664;2022-10-16T04:31:08;7.22;;;4.90;;
35693;SDS011;21812;55.536;37.664;2022-10-16T04:33:33;9.13;;;4.20;;
35693;SDS011;21812;55.536;37.664;2022-10-16T04:36:00;7.15;;;5.00;;
35693;SDS011;21812;55.536;37.664;2022-10-16T04:38:26;11.40;;;5.05;;
35693;SDS011;21812;55.536;37.664;2022-10-16T04:40:52;12.05;;;5.07;;
35693;SDS011;21812;55.536;37.664;2022-10-16T04:43:18;8.23;;;5.10;;
35693;SDS011;21812;55.536;37.664;2022-10-16T04:45:44;10.93;;;4.90;;
35693;SDS011;21812;55.536;37.664;2022-10-16T04:48:10;11.90;;;6.00;;
35693;SDS011;21812;55.536;37.664;2022-10-16T04:50:35;11.68;;;5.35;;
35693;SDS011;21812;55.536;37.664;2022-10-16T04:53:05;7.38;;;4.65;;
35693;SDS011;21812;55.536;37.664;2022-10-16T04:55:31;9.63;;;5.57;;
35693;SDS011;21812;55.536;37.664;2022-10-16T04:57:56;8.63;;;5.15;;
35693;SDS011;21812;55.536;37.664;2022-10-16T05:00:22;14.98;;;6.70;;
35693;SDS011;21812;55.536;37.664;2022-10-16T05:02:49;10.48;;;4.90;;
35693;SDS011;21812;55.536;37.664;2022-10-16T05:05:15;7.40;;;4.72;;
35693;SDS011;21812;55.536;37.664;2022-10-16T05:07:44;9.02;;;5.40;;
35693;SDS011;21812;55.536;37.664;2022-10-16T05:10:09;12.63;;;5.05;;
35693;SDS011;21812;55.536;37.664;2022-10-16T05:12:35;7.38;;;4.93;;
35693;SDS011;21812;55.536;37.664;2022-10-16T05:15:01;10.38;;;5.10;;
35693;SDS011;21812;55.536;37.664;2022-10-16T05:17:28;10.27;;;4.68;;
35693;SDS011;21812;55.536;37.664;2022-10-16T05:19:54;6.30;;;4.30;;
35693;SDS011;21812;55.536;37.664;2022-10-16T05:22:19;9.40;;;5.10;;
35693;SDS011;21812;55.536;37.664;2022-10-16T05:24:45;7.90;;;5.47;;
35693;SDS011;21812;55.536;37.664;2022-10-16T05:27:10;8.25;;;4.22;;
35693;SDS011;21812;55.536;37.664;2022-10-16T05:29:47;9.52;;;4.50;;
35693;SDS011;21812;55.536;37.664;2022-10-16T05:32:13;7.32;;;4.03;;
35693;SDS011;21812;55.536;37.664;2022-10-16T05:34:42;8.65;;;4.45;;
35693;SDS011;21812;55.536;37.664;2022-10-16T05:37:10;5.82;;;3.88;;
35693;SDS011;21812;55.536;37.664;2022-10-16T05:39:37;9.45;;;3.78;;
35693;SDS011;21812;55.536;37.664;2022-10-16T05:42:04;9.00;;;5.22;;
35693;SDS011;21812;55.536;37.664;2022-10-16T05:44:30;9.93;;;5.63;;
35693;SDS011;21812;55.536;37.664;2022-10-16T05:46:55;7.78;;;4.57;;
35693;SDS011;21812;55.536;37.664;2022-10-16T05:49:21;9.82;;;5.65;;
35693;SDS011;21812;55.536;37.664;2022-10-16T05:51:47;8.38;;;4.22;;
35693;SDS011;21812;55.536;37.664;2022-10-16T05:54:12;8.88;;;4.88;;
35693;SDS011;21812;55.536;37.664;2022-10-16T05:56:38;10.57;;;6.40;;
35693;SDS011;21812;55.536;37.664;2022-10-16T05:59:04;5.78;;;4.25;;
35693;SDS011;21812;55.536;37.664;2022-10-16T06:01:30;6.93;;;4.78;;
35693;SDS011;21812;55.536;37.664;2022-10-16T06:03:56;12.13;;;6.03;;
35693;SDS011;21812;55.536;37.664;2022-10-16T06:06:23;6.38;;;4.43;;
35693;SDS011;21812;55.536;37.664;2022-10-16T06:08:51;9.75;;;4.60;;
35693;SDS011;21812;55.536;37.664;2022-10-16T06:11:19;9.48;;;5.35;;
35693;SDS011;21812;55.536;37.664;2022-10-16T06:13:50;9.43;;;4.93;;
35693;SDS011;21812;55.536;37.664;2022-10-16T06:16:16;6.55;;;3.60;;
35693;SDS011;21812;55.536;37.664;2022-10-16T06:18:42;8.00;;;2.83;;
35693;SDS011;21812;55.536;37.664;2022-10-16T06:21:09;9.75;;;4.07;;
35693;SDS011;21812;55.536;37.664;2022-10-16T06:23:47;8.00;;;5.10;;
35693;SDS011;21812;55.536;37.664;2022-10-16T06:26:15;10.13;;;3.65;;
35693;SDS011;21812;55.536;37.664;2022-10-16T06:28:42;7.47;;;3.33;;
35693;SDS011;21812;55.536;37.664;2022-10-16T06:31:09;10.85;;;6.15;;
35693;SDS011;21812;55.536;37.664;2022-10-16T06:33:36;11.65;;;5.47;;
35693;SDS011;21812;55.536;37.664;2022-10-16T06:36:06;5.90;;;3.15;;
35693;SDS011;21812;55.536;37.664;2022-10-16T06:38:36;10.75;;;5.53;;
35693;SDS011;21812;55.536;37.664;2022-10-16T06:41:04;7.03;;;4.20;;
35693;SDS011;21812;55.536;37.664;2022-10-16T06:43:31;8.60;;;5.32;;
35693;SDS011;21812;55.536;37.664;2022-10-16T06:45:58;12.07;;;4.93;;
35693;SDS011;21812;55.536;37.664;2022-10-16T06:48:25;8.05;;;4.90;;
35693;SDS011;21812;55.536;37.664;2022-10-16T06:53:26;8.20;;;4.57;;
35693;SDS011;21812;55.536;37.664;2022-10-16T06:55:53;10.07;;;4.95;;
35693;SDS011;21812;55.536;37.664;2022-10-16T06:58:19;9.30;;;4.60;;
35693;SDS011;21812;55.536;37.664;2022-10-16T07:00:45;9.05;;;4.20;;
35693;SDS011;21812;55.536;37.664;2022-10-16T07:03:11;7.72;;;5.85;;
35693;SDS011;21812;55.536;37.664;2022-10-16T07:05:37;8.38;;;3.47;;
35693;SDS011;21812;55.536;37.664;2022-10-16T07:08:07;7.88;;;4.10;;
35693;SDS011;21812;55.536;37.664;2022-10-16T07:10:33;10.13;;;4.55;;
35693;SDS011;21812;55.536;37.664;2022-10-16T07:13:00;16.77;;;5.32;;
35693;SDS011;21812;55.536;37.664;2022-10-16T07:15:26;5.25;;;3.60;;
35693;SDS011;21812;55.536;37.664;2022-10-16T07:17:52;13.05;;;5.57;;
35693;SDS011;21812;55.536;37.664;2022-10-16T07:20:17;12.05;;;4.47;;
35693;SDS011;21812;55.536;37.664;2022-10-16T07:22:43;8.13;;;3.55;;
35693;SDS011;21812;55.536;37.664;2022-10-16T07:25:09;7.43;;;3.10;;
35693;SDS011;21812;55.536;37.664;2022-10-16T07:27:36;9.85;;;3.65;;
35693;SDS011;21812;55.536;37.664;2022-10-16T07:30:02;6.68;;;3.47;;
35693;SDS011;21812;55.536;37.664;2022-10-16T07:32:29;9.93;;;3.72;;
35693;SDS011;21812;55.536;37.664;2022-10-16T07:34:54;9.20;;;3.40;;
35693;SDS011;21812;55.536;37.664;2022-10-16T07:37:21;9.68;;;3.17;;
35693;SDS011;21812;55.536;37.664;2022-10-16T07:39:46;5.78;;;3.10;;
35693;SDS011;21812;55.536;37.664;2022-10-16T07:42:12;7.30;;;3.40;;
35693;SDS011;21812;55.536;37.664;2022-10-16T07:44:38;12.75;;;5.72;;
35693;SDS011;21812;55.536;37.664;2022-10-16T07:47:03;3.70;;;2.28;;
35693;SDS011;21812;55.536;37.664;2022-10-16T07:49:29;6.45;;;2.50;;
35693;SDS011;21812;55.536;37.664;2022-10-16T07:51:54;7.30;;;2.60;;
35693;SDS011;21812;55.536;37.664;2022-10-16T07:54:20;7.45;;;3.45;;
35693;SDS011;21812;55.536;37.664;2022-10-16T07:56:46;8.57;;;3.85;;
35693;SDS011;21812;55.536;37.664;2022-10-16T07:59:11;7.75;;;3.45;;
35693;SDS011;21812;55.536;37.664;2022-10-16T08:01:37;7.25;;;3.60;;
35693;SDS011;21812;55.536;37.664;2022-10-16T08:04:03;7.45;;;4.38;;
35693;SDS011;21812;55.536;37.664;2022-10-16T08:06:28;10.65;;;4.03;;
35693;SDS011;21812;55.536;37.664;2022-10-16T08:08:55;6.78;;;4.40;;
35693;SDS011;21812;55.536;37.664;2022-10-16T08:11:21;4.68;;;2.70;;
35693;SDS011;21812;55.536;37.664;2022-10-16T08:13:46;4.32;;;2.65;;
35693;SDS011;21812;55.536;37.664;2022-10-16T08:16:12;6.75;;;4.00;;
35693;SDS011;21812;55.536;37.664;2022-10-16T08:18:39;4.53;;;2.35;;
35693;SDS011;21812;55.536;37.664;2022-10-16T08:21:06;18.98;;;4.43;;
35693;SDS011;21812;55.536;37.664;2022-10-16T08:23:32;12.45;;;3.75;;
35693;SDS011;21812;55.536;37.664;2022-10-16T08:26:03;7.03;;;2.90;;
35693;SDS011;21812;55.536;37.664;2022-10-16T08:28:33;5.88;;;3.03;;
35693;SDS011;21812;55.536;37.664;2022-10-16T08:31:09;8.32;;;3.25;;
35693;SDS011;21812;55.536;37.664;2022-10-16T08:33:35;6.80;;;3.25;;
35693;SDS011;21812;55.536;37.664;2022-10-16T08:36:02;4.90;;;2.92;;
35693;SDS011;21812;55.536;37.664;2022-10-16T08:38:29;8.02;;;3.80;;
35693;SDS011;21812;55.536;37.664;2022-10-16T08:47:00;4.53;;;2.60;;
35693;SDS011;21812;55.536;37.664;2022-10-16T08:49:35;4.50;;;2.80;;
35693;SDS011;21812;55.536;37.664;2022-10-16T08:52:10;9.48;;;2.83;;
35693;SDS011;21812;55.536;37.664;2022-10-16T08:54:39;5.38;;;2.40;;
35693;SDS011;21812;55.536;37.664;2022-10-16T08:57:09;5.95;;;2.80;;
35693;SDS011;21812;55.536;37.664;2022-10-16T08:59:37;9.88;;;2.88;;
35693;SDS011;21812;55.536;37.664;2022-10-16T09:02:02;7.57;;;3.25;;
35693;SDS011;21812;55.536;37.664;2022-10-16T09:15:17;6.78;;;2.45;;
35693;SDS011;21812;55.536;37.664;2022-10-16T09:18:20;6.88;;;2.63;;
35693;SDS011;21812;55.536;37.664;2022-10-16T09:23:37;5.25;;;2.70;;
35693;SDS011;21812;55.536;37.664;2022-10-16T09:26:03;5.93;;;2.58;;
35693;SDS011;21812;55.536;37.664;2022-10-16T09:28:30;4.60;;;2.30;;
35693;SDS011;21812;55.536;37.664;2022-10-16T09:30:56;6.32;;;2.55;;
35693;SDS011;21812;55.536;37.664;2022-10-16T09:33:23;4.28;;;2.13;;
35693;SDS011;21812;55.536;37.664;2022-10-16T09:35:55;10.80;;;3.05;;
35693;SDS011;21812;55.536;37.664;2022-10-16T09:38:30;5.57;;;1.85;;
35693;SDS011;21812;55.536;37.664;2022-10-16T09:40:59;3.42;;;2.03;;
35693;SDS011;21812;55.536;37.664;2022-10-16T09:44:00;6.35;;;2.13;;
35693;SDS011;21812;55.536;37.664;2022-10-16T09:48:48;4.90;;;2.10;;
35693;SDS011;21812;55.536;37.664;2022-10-16T09:51:26;3.97;;;2.40;;
35693;SDS011;21812;55.536;37.664;2022-10-16T09:56:28;2.97;;;2.20;;
35693;SDS011;21812;55.536;37.664;2022-10-16T09:59:00;5.35;;;2.13;;
35693;SDS011;21812;55.536;37.664;2022-10-16T10:01:35;3.72;;;2.60;;
35693;SDS011;21812;55.536;37.664;2022-10-16T10:04:03;4.03;;;2.17;;
35693;SDS011;21812;55.536;37.664;2022-10-16T10:06:31;4.38;;;2.17;;
35693;SDS011;21812;55.536;37.664;2022-10-16T10:09:05;5.25;;;2.90;;
35693;SDS011;21812;55.536;37.664;2022-10-16T10:14:14;5.97;;;2.22;;
35693;SDS011;21812;55.536;37.664;2022-10-16T10:16:42;4.07;;;2.20;;
35693;SDS011;21812;55.536;37.664;2022-10-16T10:19:15;3.55;;;1.80;;
35693;SDS011;21812;55.536;37.664;2022-10-16T10:24:11;7.18;;;2.80;;
35693;SDS011;21812;55.536;37.664;2022-10-16T10:26:38;5.28;;;1.75;;
35693;SDS011;21812;55.536;37.664;2022-10-16T10:30:09;4.45;;;2.00;;
35693;SDS011;21812;55.536;37.664;2022-10-16T10:40:15;3.60;;;2.47;;
35693;SDS011;21812;55.536;37.664;2022-10-16T10:42:49;3.55;;;2.03;;
35693;SDS011;21812;55.536;37.664;2022-10-16T11:01:13;4.68;;;2.38;;
35693;SDS011;21812;55.536;37.664;2022-10-16T11:11:43;3.50;;;1.70;;
35693;SDS011;21812;55.536;37.664;2022-10-16T11:14:25;3.45;;;2.35;;
35693;SDS011;21812;55.536;37.664;2022-10-16T11:16:58;11.45;;;3.55;;
35693;SDS011;21812;55.536;37.664;2022-10-16T11:25:29;3.85;;;1.73;;
35693;SDS011;21812;55.536;37.664;2022-10-16T11:31:19;4.75;;;2.40;;
35693;SDS011;21812;55.536;37.664;2022-10-16T11:47:27;4.85;;;2.53;;
35693;SDS011;21812;55.536;37.664;2022-10-16T11:50:04;5.70;;;3.70;;
35693;SDS011;21812;55.536;37.664;2022-10-16T11:55:18;8.05;;;4.25;;
35693;SDS011;21812;55.536;37.664;2022-10-16T11:57:57;7.63;;;5.10;;
35693;SDS011;21812;55.536;37.664;2022-10-16T12:00:28;4.68;;;3.53;;
35693;SDS011;21812;55.536;37.664;2022-10-16T12:08:22;9.35;;;6.55;;
35693;SDS011;21812;55.536;37.664;2022-10-16T12:10:48;19.45;;;12.52;;
35693;SDS011;21812;55.536;37.664;2022-10-16T12:13:35;13.30;;;7.85;;
35693;SDS011;21812;55.536;37.664;2022-10-16T12:16:04;18.65;;;12.15;;
35693;SDS011;21812;55.536;37.664;2022-10-16T12:18:43;14.15;;;6.95;;
35693;SDS011;21812;55.536;37.664;2022-10-16T12:21:10;7.10;;;4.07;;
35693;SDS011;21812;55.536;37.664;2022-10-16T12:26:26;7.97;;;5.38;;
35693;SDS011;21812;55.536;37.664;2022-10-16T12:28:54;8.85;;;6.70;;
35693;SDS011;21812;55.536;37.664;2022-10-16T12:31:21;11.20;;;5.25;;
35693;SDS011;21812;55.536;37.664;2022-10-16T12:36:50;12.77;;;5.20;;
35693;SDS011;21812;55.536;37.664;2022-10-16T12:39:23;10.18;;;4.70;;
35693;SDS011;21812;55.536;37.664;2022-10-16T12:42:18;17.65;;;6.00;;
35693;SDS011;21812;55.536;37.664;2022-10-16T12:44:47;6.68;;;4.10;;
35693;SDS011;21812;55.536;37.664;2022-10-16T12:47:19;19.35;;;8.13;;
35693;SDS011;21812;55.536;37.664;2022-10-16T12:49:49;12.13;;;6.97;;
35693;SDS011;21812;55.536;37.664;2022-10-16T12:52:36;12.05;;;6.40;;
35693;SDS011;21812;55.536;37.664;2022-10-16T12:55:04;10.00;;;5.38;;
35693;SDS011;21812;55.536;37.664;2022-10-16T12:57:52;17.70;;;8.90;;
35693;SDS011;21812;55.536;37.664;2022-10-16T13:06:19;8.55;;;3.20;;
35693;SDS011;21812;55.536;37.664;2022-10-16T13:17:23;4.47;;;2.55;;
35693;SDS011;21812;55.536;37.664;2022-10-16T13:22:48;9.30;;;6.07;;
35693;SDS011;21812;55.536;37.664;2022-10-16T13:28:10;6.22;;;3.72;;
35693;SDS011;21812;55.536;37.664;2022-10-16T13:33:23;12.23;;;3.97;;
35693;SDS011;21812;55.536;37.664;2022-10-16T13:35:50;7.97;;;2.70;;
35693;SDS011;21812;55.536;37.664;2022-10-16T13:38:21;6.63;;;3.00;;
35693;SDS011;21812;55.536;37.664;2022-10-16T13:43:16;4.13;;;2.50;;
35693;SDS011;21812;55.536;37.664;2022-10-16T13:45:52;9.27;;;3.28;;
35693;SDS011;21812;55.536;37.664;2022-10-16T13:48:23;3.70;;;2.47;;
35693;SDS011;21812;55.536;37.664;2022-10-16T13:50:58;7.97;;;2.97;;
35693;SDS011;21812;55.536;37.664;2022-10-16T13:53:25;7.97;;;3.13;;
35693;SDS011;21812;55.536;37.664;2022-10-16T13:55:50;9.90;;;2.95;;
35693;SDS011;21812;55.536;37.664;2022-10-16T13:58:16;8.02;;;3.15;;
35693;SDS011;21812;55.536;37.664;2022-10-16T14:00:55;6.18;;;2.88;;
35693;SDS011;21812;55.536;37.664;2022-10-16T14:03:25;8.33;;;3.43;;
35693;SDS011;21812;55.536;37.664;2022-10-16T14:05:56;8.13;;;2.80;;
35693;SDS011;21812;55.536;37.664;2022-10-16T14:08:25;4.50;;;2.70;;
35693;SDS011;21812;55.536;37.664;2022-10-16T14:10:54;7.00;;;3.33;;
35693;SDS011;21812;55.536;37.664;2022-10-16T14:13:32;6.53;;;2.13;;
35693;SDS011;21812;55.536;37.664;2022-10-16T14:16:02;11.48;;;4.90;;
35693;SDS011;21812;55.536;37.664;2022-10-16T14:18:32;11.95;;;5.20;;
35693;SDS011;21812;55.536;37.664;2022-10-16T14:21:06;9.45;;;3.75;;
35693;SDS011;21812;55.536;37.664;2022-10-16T14:23:37;19.63;;;5.05;;
35693;SDS011;21812;55.536;37.664;2022-10-16T14:28:36;14.55;;;3.88;;
35693;SDS011;21812;55.536;37.664;2022-10-16T14:31:16;8.05;;;3.90;;
35693;SDS011;21812;55.536;37.664;2022-10-16T14:33:50;12.32;;;4.32;;
35693;SDS011;21812;55.536;37.664;2022-10-16T14:36:16;8.23;;;4.22;;
35693;SDS011;21812;55.536;37.664;2022-10-16T14:41:30;7.72;;;4.10;;
35693;SDS011;21812;55.536;37.664;2022-10-16T14:44:00;8.65;;;3.75;;
35693;SDS011;21812;55.536;37.664;2022-10-16T14:46:31;8.65;;;3.88;;
35693;SDS011;21812;55.536;37.664;2022-10-16T14:49:04;6.55;;;3.97;;
35693;SDS011;21812;55.536;37.664;2022-10-16T14:51:38;8.18;;;3.95;;
35693;SDS011;21812;55.536;37.664;2022-10-16T14:54:10;9.07;;;3.80;;
35693;SDS011;21812;55.536;37.664;2022-10-16T15:02:35;9.35;;;4.25;;
35693;SDS011;21812;55.536;37.664;2022-10-16T15:04:54;10.45;;;4.18;;
35693;SDS011;21812;55.536;37.664;2022-10-16T15:07:20;7.50;;;4.22;;
35693;SDS011;21812;55.536;37.664;2022-10-16T15:09:46;9.13;;;4.68;;
35693;SDS011;21812;55.536;37.664;2022-10-16T15:12:12;8.63;;;5.35;;
35693;SDS011;21812;55.536;37.664;2022-10-16T15:14:37;9.88;;;4.78;;
35693;SDS011;21812;55.536;37.664;2022-10-16T15:17:03;12.07;;;4.60;;
35693;SDS011;21812;55.536;37.664;2022-10-16T15:19:29;10.10;;;4.80;;
35693;SDS011;21812;55.536;37.664;2022-10-16T15:21:55;8.15;;;4.70;;
35693;SDS011;21812;55.536;37.664;2022-10-16T15:24:21;14.75;;;4.75;;
35693;SDS011;21812;55.536;37.664;2022-10-16T15:26:47;14.75;;;8.02;;
35693;SDS011;21812;55.536;37.664;2022-10-16T15:29:13;11.57;;;6.35;;
35693;SDS011;21812;55.536;37.664;2022-10-16T15:31:39;9.82;;;4.32;;
35693;SDS011;21812;55.536;37.664;2022-10-16T15:34:08;13.13;;;5.05;;
35693;SDS011;21812;55.536;37.664;2022-10-16T15:36:37;10.48;;;5.80;;
35693;SDS011;21812;55.536;37.664;2022-10-16T15:39:04;8.63;;;5.43;;
35693;SDS011;21812;55.536;37.664;2022-10-16T15:41:44;11.13;;;4.75;;
35693;SDS011;21812;55.536;37.664;2022-10-16T15:44:16;14.35;;;5.30;;
35693;SDS011;21812;55.536;37.664;2022-10-16T15:46:42;13.07;;;5.70;;
35693;SDS011;21812;55.536;37.664;2022-10-16T15:49:08;10.70;;;4.70;;
35693;SDS011;21812;55.536;37.664;2022-10-16T15:51:36;13.65;;;5.63;;
35693;SDS011;21812;55.536;37.664;2022-10-16T15:54:03;10.55;;;6.30;;
35693;SDS011;21812;55.536;37.664;2022-10-16T15:56:29;8.32;;;4.90;;
35693;SDS011;21812;55.536;37.664;2022-10-16T15:58:58;11.57;;;6.15;;
35693;SDS011;21812;55.536;37.664;2022-10-16T16:01:26;10.95;;;5.10;;
35693;SDS011;21812;55.536;37.664;2022-10-16T16:03:52;11.25;;;5.70;;
35693;SDS011;21812;55.536;37.664;2022-10-16T16:06:21;15.80;;;6.53;;
35693;SDS011;21812;55.536;37.664;2022-10-16T16:08:51;10.88;;;5.93;;
35693;SDS011;21812;55.536;37.664;2022-10-16T16:11:17;11.57;;;6.38;;
35693;SDS011;21812;55.536;37.664;2022-10-16T16:13:43;11.90;;;6.78;;
35693;SDS011;21812;55.536;37.664;2022-10-16T16:16:11;13.00;;;6.13;;
35693;SDS011;21812;55.536;37.664;2022-10-16T16:18:38;12.23;;;6.32;;
35693;SDS011;21812;55.536;37.664;2022-10-16T16:21:05;17.63;;;6.35;;
35693;SDS011;21812;55.536;37.664;2022-10-16T16:23:31;9.52;;;5.90;;
35693;SDS011;21812;55.536;37.664;2022-10-16T16:28:28;12.70;;;6.32;;
35693;SDS011;21812;55.536;37.664;2022-10-16T16:30:55;17.08;;;6.55;;
35693;SDS011;21812;55.536;37.664;2022-10-16T16:33:20;12.20;;;6.38;;
35693;SDS011;21812;55.536;37.664;2022-10-16T16:35:46;16.50;;;6.80;;
35693;SDS011;21812;55.536;37.664;2022-10-16T16:38:12;13.82;;;6.50;;
35693;SDS011;21812;55.536;37.664;2022-10-16T16:40:37;12.88;;;6.03;;
35693;SDS011;21812;55.536;37.664;2022-10-16T16:43:03;12.27;;;7.22;;
35693;SDS011;21812;55.536;37.664;2022-10-16T16:45:29;15.27;;;8.32;;
35693;SDS011;21812;55.536;37.664;2022-10-16T16:47:55;10.02;;;6.13;;
35693;SDS011;21812;55.536;37.664;2022-10-16T16:50:21;11.90;;;6.78;;
35693;SDS011;21812;55.536;37.664;2022-10-16T16:52:47;14.93;;;7.65;;
35693;SDS011;21812;55.536;37.664;2022-10-16T16:55:13;15.77;;;6.88;;
35693;SDS011;21812;55.536;37.664;2022-10-16T16:57:39;13.93;;;7.00;;
35693;SDS011;21812;55.536;37.664;2022-10-16T17:00:04;13.43;;;6.60;;
35693;SDS011;21812;55.536;37.664;2022-10-16T17:02:31;14.50;;;7.90;;
35693;SDS011;21812;55.536;37.664;2022-10-16T17:04:57;14.82;;;7.30;;
35693;SDS011;21812;55.536;37.664;2022-10-16T17:07:23;13.10;;;7.40;;
35693;SDS011;21812;55.536;37.664;2022-10-16T17:09:50;12.50;;;6.25;;
35693;SDS011;21812;55.536;37.664;2022-10-16T17:12:16;12.65;;;6.35;;
35693;SDS011;21812;55.536;37.664;2022-10-16T17:14:43;12.70;;;7.00;;
35693;SDS011;21812;55.536;37.664;2022-10-16T17:17:09;12.70;;;5.72;;